KBRY

Samuels Field Airport

Bardstown, Kentucky, USA
METAR KBRY 241455Z AUTO 29003KT 10SM SCT017 SCT022 25/21 A2996 RMK AO1
Observed Flight Rules
Jun-24 @ 14:55 UTC (11 minutes ago) Visual Flight Rules
Wind Visibility Clouds
290° at 3 knots 10 miles
  • Scattered at 1,700' AGL
  • Scattered at 2,200' AGL
Temperatures Readings
Current 25°C / 77°F
Dewpoint 21°C / 70°F
Humidity 79%
Altimeter 29.96" Hg
Pressure 1015 hPa
Elevation 204
METAR KBRY 241455Z AUTO 29003KT 10SM SCT017 SCT022 25/21 A2996 RMK AO1
Observed Flight Rules
Jun-24 @ 14:55 UTC
(11 minutes ago)
VFR
Wind Visibility
290° at 3 knots 10 miles
Clouds
  • Scattered at 1,700' AGL
  • Scattered at 2,200' AGL
Temperature Dewpoint
25°C / 77°F 21°C / 70°F
Humidity Altimeter Pressure
79% 29.96" Hg 1015 hPa